• Join FlightAware (Why Join?)
  • Login
  • US Flag 
08:24PM EDT


 

Airport Tracker/Info


-or-


 

Live Flight TrackerFlight Track Log ✈ N102WY ✈ 13-May-2013 ✈ KTOR - KRIW

Flight Track Log - Related Links

Times and Time Zones

All times are in EDT time to prevent confusion due to time zone crossing. See the N102WY flight status page for this flight to view local times or setup timezone preferences in your user account.

Time Position Orientation Groundspeed Altitude Reporting Facility
EDT Latitude Longitude Course Direction KTS MPH feet Rate Location/Type
09:28AM 42.1019 -104.3053 290° West 221 254 9,500  Level Salt Lake Center
09:29AM 42.1261 -104.4003 289° West 255 293 12,400 3,240 Climbing Salt Lake Center
09:30AM 42.1550 -104.5156 289° West 278 320 16,100 3,180 Climbing Salt Lake Center
09:31AM 42.1786 -104.6117 288° West 282 325 19,000 2,700 Climbing Salt Lake Center
09:32AM 42.2022 -104.7064 289° West 280 322 21,700 2,700 Climbing Salt Lake Center
09:33AM 42.2811 -105.0249 290° West  Level FlightAware Approximate
09:33AM 42.2297 -104.8197 288° West 282 325 24,500  Level Salt Lake Center
09:34AM 42.2542 -104.9236 288° West 292 336 26,400 1,860 Climbing Salt Lake Center
09:35AM 42.2803 -105.0297 288° West 306 352 28,400 2,040 Climbing Salt Lake Center
09:36AM 42.3122 -105.1558 289° West 314 361 30,600 1,860 Climbing Salt Lake Center
09:37AM 42.3392 -105.2667 288° West 321 369 32,300 1,380 Climbing Salt Lake Center
09:38AM 42.3661 -105.3817 288° West 332 382 33,500 780 Climbing Salt Lake Center
09:39AM 42.4003 -105.5231 288° West 353 406 34,000 240 Climbing Salt Lake Center
09:40AM 42.4294 -105.6461 288° West 357 411 34,000  Level Salt Lake Center
09:41AM 42.4578 -105.7669 288° West 352 405 34,000  Level Salt Lake Center
09:42AM 42.4908 -105.9078 288° West 351 404 34,000  Level Salt Lake Center
09:43AM 42.5186 -106.0294 287° West 353 406 34,000 -120 Level Salt Lake Center
09:44AM 42.5508 -106.1692 287° West 348 400 33,800 -600 Descending Salt Lake Center
09:45AM 42.5800 -106.2939 288° West 359 413 32,900 -960 Descending Salt Lake Center
09:46AM 42.6075 -106.4167 287° West 357 411 31,900 -1,080 Descending Salt Lake Center
09:47AM 42.6417 -106.5581 288° West 352 405 30,800 -1,080 Descending Salt Lake Center
09:48AM 42.6681 -106.6783 287° West 349 402 29,800 -960 Descending Salt Lake Center
09:49AM 42.6953 -106.8006 287° West 351 404 28,900 -1,020 Descending Salt Lake Center
09:50AM 42.7278 -106.9392 288° West 344 396 27,800 -1,080 Descending Salt Lake Center
09:51AM 42.7550 -107.0631 287° West 338 389 26,800 -1,020 Descending Salt Lake Center
09:52AM 42.7803 -107.1778 287° West 333 383 25,800 -1,140 Descending Salt Lake Center
09:53AM 42.8092 -107.3072 287° West 325 374 24,600 -1,500 Descending Salt Lake Center
09:54AM 42.8339 -107.4186 287° West 322 371 22,800 -1,800 Descending Salt Lake Center
09:55AM 42.8567 -107.5253 286° West 313 360 21,000 -1,920 Descending Salt Lake Center
09:56AM 42.8833 -107.6472 287° West 304 350 18,900 -1,800 Descending Salt Lake Center
09:57AM 42.9047 -107.7481 286° West 296 341 17,400 -1,500 Descending Salt Lake Center